createdAt,value
2022-09-23T00:05:32.773Z,99.90
2022-09-23T00:15:40.688Z,99.90
2022-09-23T00:25:44.363Z,99.90
2022-09-23T00:35:50.108Z,99.90
2022-09-23T00:45:54.845Z,99.90
2022-09-23T00:56:04.773Z,99.90
2022-09-23T01:06:09.292Z,99.90
2022-09-23T01:16:23.277Z,99.90
2022-09-23T01:26:49.845Z,99.90
2022-09-23T01:37:00.220Z,99.90
2022-09-23T01:47:10.959Z,99.90
2022-09-23T01:57:20.406Z,99.90
2022-09-23T02:07:30.351Z,99.90
2022-09-23T02:17:40.610Z,99.90
2022-09-23T02:27:56.306Z,99.90
2022-09-23T02:38:18.326Z,99.90
2022-09-23T02:48:26.311Z,99.90
2022-09-23T02:58:31.428Z,99.90
2022-09-23T03:08:50.398Z,99.90
2022-09-23T03:19:05.561Z,99.90
2022-09-23T03:29:11.400Z,99.90
2022-09-23T03:39:29.564Z,99.90
2022-09-23T03:49:39.175Z,99.90
2022-09-23T03:59:44.307Z,99.90
2022-09-23T04:09:47.927Z,99.90
2022-09-23T04:19:53.001Z,99.90
2022-09-23T04:29:56.579Z,99.90
2022-09-23T04:40:01.864Z,99.90
2022-09-23T04:50:06.561Z,99.90
2022-09-23T05:00:15.314Z,99.90
2022-09-23T05:10:19.373Z,99.90
2022-09-23T05:20:24.400Z,99.90
2022-09-23T05:30:28.548Z,99.90
2022-09-23T05:40:33.618Z,99.90
2022-09-23T05:50:37.710Z,99.90
2022-09-23T06:00:44.256Z,99.90
2022-09-23T06:10:53.510Z,99.90
2022-09-23T06:21:05.379Z,99.90
2022-09-23T06:31:13.602Z,99.90
2022-09-23T06:41:21.210Z,99.90
2022-09-23T06:51:24.858Z,99.90
2022-09-23T07:01:29.898Z,99.90
2022-09-23T07:11:33.735Z,99.90
2022-09-23T07:21:38.800Z,99.90
2022-09-23T07:31:42.587Z,99.90
2022-09-23T07:41:48.090Z,99.90
2022-09-23T07:51:52.743Z,99.90
2022-09-23T08:02:00.672Z,99.90
2022-09-23T08:12:04.887Z,99.90
2022-09-23T08:22:09.934Z,99.90
2022-09-23T08:32:13.546Z,99.90
2022-09-23T08:42:24.664Z,99.20
2022-09-23T08:52:35.804Z,99.60
2022-09-23T09:02:41.232Z,98.30
2022-09-23T09:12:47.572Z,98.00
2022-09-23T09:22:57.405Z,97.60
2022-09-23T09:33:05.038Z,96.50
2022-09-23T09:43:23.128Z,96.00
2022-09-23T09:53:30.410Z,95.10
2022-09-23T10:03:40.833Z,94.40
2022-09-23T10:14:05.086Z,93.60
2022-09-23T10:24:22.912Z,93.50
2022-09-23T10:34:28.888Z,92.10
2022-09-23T10:44:58.432Z,91.50
2022-09-23T10:55:18.906Z,90.60
2022-09-23T11:05:39.998Z,90.10
2022-09-23T11:15:55.683Z,88.80
2022-09-23T11:26:20.940Z,86.40
2022-09-23T11:36:32.641Z,87.00
2022-09-23T11:46:42.477Z,85.40
2022-09-23T11:56:49.339Z,84.70
2022-09-23T12:07:01.246Z,83.40
2022-09-23T12:17:26.883Z,82.20
2022-09-23T12:27:38.927Z,79.50
2022-09-23T12:37:43.273Z,79.00
2022-09-23T12:47:48.213Z,77.30
2022-09-23T12:57:51.928Z,77.50
2022-09-23T13:08:04.517Z,77.20
2022-09-23T13:18:41.263Z,75.20
2022-09-23T13:28:57.212Z,73.70
2022-09-23T13:39:16.322Z,73.90
2022-09-23T13:49:25.361Z,73.50
2022-09-23T13:59:31.722Z,75.10
2022-09-23T14:09:42.323Z,75.70
2022-09-23T14:19:46.610Z,75.40
2022-09-23T14:29:51.878Z,75.80
2022-09-23T14:39:57.890Z,75.90
2022-09-23T14:50:20.045Z,76.40
2022-09-23T15:00:23.856Z,77.50
2022-09-23T15:10:33.918Z,76.80
2022-09-23T15:20:37.855Z,76.60
2022-09-23T15:30:42.949Z,78.00
2022-09-23T15:40:46.801Z,78.30
2022-09-23T15:50:55.340Z,78.40
2022-09-23T16:00:59.827Z,79.00
2022-09-23T16:11:06.070Z,80.90
2022-09-23T16:21:12.441Z,82.20
2022-09-23T16:31:17.774Z,83.50
2022-09-23T16:41:21.615Z,84.20
2022-09-23T16:51:29.438Z,84.10
2022-09-23T17:01:51.042Z,84.90
2022-09-23T17:12:04.342Z,86.90
2022-09-23T17:22:08.109Z,90.20
2022-09-23T17:32:13.130Z,91.00
2022-09-23T17:42:18.130Z,93.90
2022-09-23T17:52:23.120Z,95.60
2022-09-23T18:02:27.118Z,96.60
2022-09-23T18:12:32.104Z,97.50
2022-09-23T18:22:35.775Z,97.60
2022-09-23T18:32:40.956Z,97.50
2022-09-23T18:42:44.622Z,98.40
2022-09-23T18:52:49.825Z,99.20
2022-09-23T19:02:53.785Z,99.90
2022-09-23T19:12:59.064Z,99.90
2022-09-23T19:23:02.756Z,99.90
2022-09-23T19:33:09.905Z,99.90
2022-09-23T19:43:14.267Z,99.90
2022-09-23T19:53:19.401Z,99.90
2022-09-23T20:03:23.060Z,99.90
2022-09-23T20:13:32.503Z,99.90
2022-09-23T20:23:36.166Z,99.90
2022-09-23T20:33:42.192Z,99.90
2022-09-23T20:43:45.811Z,99.90
2022-09-23T20:53:52.721Z,99.90
2022-09-23T21:03:56.744Z,99.90
2022-09-23T21:14:02.143Z,99.90
2022-09-23T21:24:40.050Z,99.90
2022-09-23T21:34:34.466Z,99.90
2022-09-23T21:44:38.076Z,99.90
2022-09-23T21:54:43.080Z,99.90
2022-09-23T22:04:46.833Z,99.90
2022-09-23T22:14:52.186Z,99.90
2022-09-23T22:24:55.853Z,99.90
2022-09-23T22:35:00.807Z,99.90
2022-09-23T22:45:06.253Z,99.90
2022-09-23T22:55:12.576Z,99.90
2022-09-23T23:05:16.440Z,99.90
2022-09-23T23:15:21.391Z,99.90
2022-09-23T23:25:25.334Z,99.90
2022-09-23T23:35:30.299Z,99.90
2022-09-23T23:45:33.937Z,99.90
2022-09-23T23:55:40.125Z,99.90
